Time;durP1;ratioP1;P1;durP2;ratioP2;P2;SDS_P1;SDS_P2;PMS_P1;PMS_P2;Temp;Humidity;BMP_temperature;BMP_pressure;BME280_temperature;BME280_humidity;BME280_pressure;Samples;Min_cycle;Max_cycle;Signal;HPM_P1;HPM_P2
2023/12/23 00:01:44;;;;;;;8.98;3.20;;;;;;;1.24;86.47;97302.06;1700235;84;21492;-64
2023/12/23 00:04:12;;;;;;;9.23;3.35;;;;;;;1.25;86.34;97300.50;1700418;84;21048;-64
2023/12/23 00:06:41;;;;;;;9.28;2.98;;;;;;;1.23;86.22;97296.36;1700129;84;21521;-63
2023/12/23 00:09:09;;;;;;;12.65;3.40;;;;;;;1.22;86.18;97297.41;1700236;84;21063;-63
2023/12/23 00:11:38;;;;;;;13.22;3.42;;;;;;;1.21;86.21;97304.67;1700497;84;21023;-65
2023/12/23 00:14:06;;;;;;;11.22;3.10;;;;;;;1.21;86.03;97302.49;1684610;84;21072;-63
2023/12/23 00:16:35;;;;;;;12.47;3.65;;;;;;;1.21;85.85;97313.27;1684653;84;21040;-63
2023/12/23 00:19:03;;;;;;;12.73;3.83;;;;;;;1.19;85.70;97312.66;1700258;84;21074;-63
2023/12/23 00:21:32;;;;;;;12.58;3.87;;;;;;;1.19;85.67;97303.23;1700422;84;21032;-64
2023/12/23 00:24:01;;;;;;;11.93;3.90;;;;;;;1.17;85.50;97308.01;1700476;84;21071;-64
2023/12/23 00:26:30;;;;;;;13.03;3.87;;;;;;;1.14;85.50;97303.87;1700429;84;21012;-64
2023/12/23 00:28:59;;;;;;;9.35;3.42;;;;;;;1.13;85.63;97298.69;1700210;84;21048;-65
2023/12/23 00:31:27;;;;;;;11.30;3.40;;;;;;;1.14;85.73;97298.48;1700342;84;21040;-63
2023/12/23 00:33:55;;;;;;;8.78;3.50;;;;;;;1.15;85.84;97288.52;1700212;84;21622;-63
2023/12/23 00:36:24;;;;;;;13.70;4.00;;;;;;;1.17;85.91;97293.18;1700152;84;21043;-62
2023/12/23 00:38:53;;;;;;;12.70;3.70;;;;;;;1.17;85.63;97291.83;1700534;84;21032;-63
2023/12/23 00:41:22;;;;;;;14.80;3.95;;;;;;;1.15;85.58;97293.91;1705262;83;21086;-64
2023/12/23 00:43:51;;;;;;;9.18;3.30;;;;;;;1.14;85.51;97289.56;1723515;83;21039;-63
2023/12/23 00:46:20;;;;;;;10.98;3.40;;;;;;;1.11;85.53;97294.03;1723505;83;21054;-65
2023/12/23 00:48:49;;;;;;;13.83;3.50;;;;;;;1.11;85.60;97284.08;1723329;83;21102;-65
2023/12/23 00:51:18;;;;;;;13.32;3.52;;;;;;;1.13;85.70;97293.30;1723534;83;21035;-63
2023/12/23 00:53:46;;;;;;;9.95;3.10;;;;;;;1.14;85.64;97288.22;1723554;83;21042;-63
2023/12/23 00:56:21;;;;;;;11.33;3.30;;;;;;;1.16;85.77;97291.00;1723389;83;21011;-63
2023/12/23 00:58:49;;;;;;;10.60;3.05;;;;;;;1.19;85.71;97289.75;1723364;83;21051;-64
2023/12/23 01:01:18;;;;;;;9.95;2.85;;;;;;;1.22;85.74;97293.36;1723352;83;21054;-63
2023/12/23 01:03:46;;;;;;;9.13;3.05;;;;;;;1.25;85.73;97295.63;1723395;83;21042;-64
2023/12/23 01:06:15;;;;;;;9.08;2.83;;;;;;;1.26;85.71;97291.89;1723560;83;21051;-63
2023/12/23 01:08:44;;;;;;;11.68;3.40;;;;;;;1.29;85.70;97294.16;1723273;83;21273;-63
2023/12/23 01:11:12;;;;;;;10.45;2.30;;;;;;;1.31;85.75;97286.71;1723383;83;21051;-64
2023/12/23 01:13:41;;;;;;;8.95;2.62;;;;;;;1.33;85.73;97279.23;1723555;83;21047;-64
2023/12/23 01:16:10;;;;;;;7.97;3.08;;;;;;;1.35;85.66;97286.59;1695196;83;21041;-63
2023/12/23 01:18:38;;;;;;;5.90;2.10;;;;;;;1.39;85.56;97276.19;1723283;83;21070;-63
2023/12/23 01:21:07;;;;;;;5.22;2.60;;;;;;;1.41;85.56;97280.33;1695294;83;21479;-62
2023/12/23 01:23:35;;;;;;;6.78;2.58;;;;;;;1.45;85.60;97268.59;1723337;83;21049;-63
2023/12/23 01:26:04;;;;;;;5.53;2.27;;;;;;;1.51;85.62;97276.64;1723569;83;21046;-63
2023/12/23 01:28:32;;;;;;;5.95;2.10;;;;;;;1.57;85.56;97285.73;1723424;83;21027;-63
2023/12/23 01:31:01;;;;;;;5.70;2.62;;;;;;;1.59;85.43;97276.38;1723576;83;21161;-65
2023/12/23 01:33:30;;;;;;;5.72;2.20;;;;;;;1.64;85.33;97292.44;1695207;83;21481;-64
2023/12/23 01:35:59;;;;;;;6.80;1.87;;;;;;;1.69;85.17;97287.21;1723541;83;21078;-64
2023/12/23 01:38:28;;;;;;;6.80;2.20;;;;;;;1.73;84.95;97285.21;1723298;83;21055;-65
2023/12/23 01:40:56;;;;;;;4.10;1.90;;;;;;;1.76;84.87;97280.72;1723602;83;21099;-65
2023/12/23 01:43:25;;;;;;;7.08;2.00;;;;;;;1.80;84.66;97284.64;1701517;82;21019;-64
2023/12/23 01:45:56;;;;;;;5.47;2.58;;;;;;;1.82;84.66;97285.25;1700280;84;21059;-63
2023/12/23 01:48:24;;;;;;;6.35;2.08;;;;;;;1.85;84.58;97286.69;1700165;84;21080;-65
2023/12/23 01:50:53;;;;;;;7.05;2.30;;;;;;;1.88;84.27;97286.25;1700190;84;21036;-65
2023/12/23 01:53:22;;;;;;;5.05;2.10;;;;;;;1.88;83.98;97280.84;1700261;84;21064;-65
2023/12/23 01:55:50;;;;;;;4.53;2.00;;;;;;;1.89;84.04;97281.16;1700164;84;21504;-63
2023/12/23 01:58:21;;;;;;;4.62;1.72;;;;;;;1.91;83.96;97281.23;1700181;84;21518;-64
2023/12/23 02:00:49;;;;;;;4.25;2.10;;;;;;;1.93;83.85;97269.39;1700340;84;21075;-63
2023/12/23 02:03:18;;;;;;;4.42;1.98;;;;;;;1.92;83.95;97260.47;1700219;84;21040;-63
2023/12/23 02:05:47;;;;;;;5.58;2.40;;;;;;;1.95;83.98;97264.60;1700245;84;21091;-64
2023/12/23 02:08:15;;;;;;;6.33;2.30;;;;;;;1.94;83.85;97266.47;1700140;84;21044;-63
2023/12/23 02:10:44;;;;;;;5.15;2.30;;;;;;;1.94;83.89;97265.13;1700164;84;21931;-62
2023/12/23 02:13:28;;;;;;;5.08;1.92;;;;;;;1.94;83.87;97261.59;1700160;84;21032;-65
2023/12/23 02:15:57;;;;;;;9.15;2.40;;;;;;;1.94;83.95;97262.95;1700155;84;21064;-63
2023/12/23 02:18:25;;;;;;;3.87;2.12;;;;;;;1.98;84.05;97262.32;1700153;84;21060;-64
2023/12/23 02:20:55;;;;;;;4.97;1.98;;;;;;;1.97;83.91;97255.27;1700154;84;21040;-63
2023/12/23 02:23:24;;;;;;;5.08;2.00;;;;;;;1.95;83.85;97247.91;1700393;84;21013;-64
2023/12/23 02:25:59;;;;;;;7.58;2.42;;;;;;;1.93;83.77;97247.80;1700208;84;21476;-65
2023/12/23 02:28:27;;;;;;;7.37;2.33;;;;;;;1.91;83.83;97250.72;1700181;84;21047;-64
2023/12/23 02:30:56;;;;;;;4.78;2.00;;;;;;;1.94;83.99;97249.45;1700162;84;21017;-62
2023/12/23 02:33:25;;;;;;;3.70;2.22;;;;;;;1.94;84.07;97247.58;1700175;84;21020;-65
2023/12/23 02:35:53;;;;;;;6.00;2.50;;;;;;;1.94;84.07;97246.23;1700122;84;21016;-64
2023/12/23 02:38:23;;;;;;;5.90;2.20;;;;;;;1.91;84.00;97243.97;1684508;84;21107;-63
2023/12/23 02:40:52;;;;;;;5.05;2.00;;;;;;;1.87;84.11;97240.06;1700130;84;21522;-63
2023/12/23 02:43:21;;;;;;;5.92;2.05;;;;;;;1.86;84.27;97238.41;1700345;83;21028;-65
2023/12/23 02:45:50;;;;;;;7.05;2.33;;;;;;;1.82;84.21;97243.94;1700399;84;21053;-63
2023/12/23 02:48:18;;;;;;;4.40;2.00;;;;;;;1.80;84.31;97247.38;1700185;84;21044;-63
2023/12/23 02:50:47;;;;;;;5.55;1.92;;;;;;;1.77;84.43;97244.59;1700179;84;21440;-63
2023/12/23 02:53:15;;;;;;;7.05;2.30;;;;;;;1.77;84.46;97247.30;1700210;84;21068;-64
2023/12/23 02:55:44;;;;;;;3.80;1.87;;;;;;;1.75;84.55;97243.16;1700173;84;21088;-63
2023/12/23 02:58:13;;;;;;;4.40;1.65;;;;;;;1.71;84.63;97247.34;1700117;84;21008;-64
2023/12/23 03:00:41;;;;;;;6.42;1.98;;;;;;;1.66;84.85;97237.20;1700396;84;21187;-64
2023/12/23 03:03:10;;;;;;;6.83;2.00;;;;;;;1.63;85.05;97240.87;1700183;84;21056;-64
2023/12/23 03:05:38;;;;;;;4.90;2.00;;;;;;;1.62;85.19;97237.86;1700332;84;21060;-64
2023/12/23 03:08:07;;;;;;;8.70;2.40;;;;;;;1.62;85.37;97238.69;1700217;84;21151;-64
2023/12/23 03:10:37;;;;;;;4.83;2.08;;;;;;;1.62;85.39;97241.91;1700187;84;21000;-65
2023/12/23 03:13:06;;;;;;;4.58;2.00;;;;;;;1.62;85.46;97235.17;1700417;84;21068;-64
2023/12/23 03:15:35;;;;;;;5.78;2.35;;;;;;;1.62;85.55;97241.39;1700219;84;21016;-64
2023/12/23 03:18:04;;;;;;;6.65;2.10;;;;;;;1.64;85.62;97241.17;1700189;84;21503;-62
2023/12/23 03:20:34;;;;;;;6.12;2.00;;;;;;;1.64;85.66;97240.66;1700414;84;21040;-63
2023/12/23 03:23:05;;;;;;;4.53;1.92;;;;;;;1.65;85.71;97243.65;1700090;84;21028;-64
2023/12/23 03:25:34;;;;;;;8.15;2.00;;;;;;;1.66;85.76;97232.34;1700161;84;21048;-64
2023/12/23 03:28:03;;;;;;;5.15;2.05;;;;;;;1.63;85.78;97234.95;1700352;84;21055;-65
2023/12/23 03:30:32;;;;;;;4.87;2.02;;;;;;;1.63;85.89;97246.27;1700359;84;21079;-63
2023/12/23 03:33:00;;;;;;;5.50;2.30;;;;;;;1.62;86.02;97241.39;1700405;84;21036;-64
2023/12/23 03:35:30;;;;;;;5.62;2.30;;;;;;;1.61;86.01;97244.31;1700382;84;21048;-63
2023/12/23 03:37:58;;;;;;;5.85;2.05;;;;;;;1.62;86.21;97237.86;1700367;84;21020;-64
2023/12/23 03:40:28;;;;;;;4.72;1.98;;;;;;;1.64;86.20;97241.17;1684646;84;21507;-62
2023/12/23 03:42:57;;;;;;;6.55;2.45;;;;;;;1.60;86.17;97240.78;1711214;83;21146;-64
2023/12/23 03:45:25;;;;;;;6.37;2.27;;;;;;;1.57;86.25;97235.30;1723377;83;21027;-65
2023/12/23 03:47:54;;;;;;;7.30;2.58;;;;;;;1.59;86.48;97244.00;1723634;83;21010;-64
2023/12/23 03:50:23;;;;;;;4.35;2.33;;;;;;;1.59;86.42;97239.12;1723327;83;21015;-63
2023/12/23 03:52:51;;;;;;;5.87;2.15;;;;;;;1.58;86.66;97238.30;1723399;83;21090;-64
2023/12/23 03:55:20;;;;;;;6.53;2.40;;;;;;;1.58;86.80;97248.27;1723462;83;21038;-64
2023/12/23 03:57:49;;;;;;;5.65;2.05;;;;;;;1.58;86.81;97242.87;1723526;83;20999;-64
2023/12/23 04:00:19;;;;;;;6.05;2.08;;;;;;;1.57;86.95;97251.48;1723630;83;21300;-64
2023/12/23 04:02:47;;;;;;;6.08;2.05;;;;;;;1.57;86.94;97249.31;1723321;83;21011;-65
2023/12/23 04:05:17;;;;;;;8.93;2.52;;;;;;;1.56;86.97;97252.53;1723345;83;21002;-63
2023/12/23 04:07:49;;;;;;;8.23;2.30;;;;;;;1.57;87.11;97256.05;1723453;83;21035;-63
2023/12/23 04:10:18;;;;;;;4.83;2.10;;;;;;;1.57;87.17;97252.84;1723682;83;21058;-63
2023/12/23 04:12:47;;;;;;;3.62;1.95;;;;;;;1.58;87.26;97256.36;1723345;83;21011;-65
2023/12/23 04:15:15;;;;;;;10.13;2.67;;;;;;;1.61;87.39;97270.77;1723283;83;21203;-65
2023/12/23 04:17:44;;;;;;;4.37;2.10;;;;;;;1.62;87.44;97276.47;1723680;83;21060;-64
2023/12/23 04:20:13;;;;;;;7.65;2.33;;;;;;;1.62;87.40;97272.94;1723307;83;21047;-63
2023/12/23 04:22:44;;;;;;;6.70;2.15;;;;;;;1.65;87.47;97271.98;1723345;83;21043;-64
2023/12/23 04:25:12;;;;;;;7.42;2.58;;;;;;;1.66;87.47;97272.28;1723397;83;21066;-65
2023/12/23 04:27:40;;;;;;;6.12;2.00;;;;;;;1.68;87.57;97274.77;1723527;83;21019;-64
2023/12/23 04:30:11;;;;;;;4.58;2.08;;;;;;;1.71;87.60;97276.51;1723440;83;21035;-64
2023/12/23 04:32:40;;;;;;;4.58;2.37;;;;;;;1.72;87.65;97282.73;1723301;83;21074;-64
2023/12/23 04:35:09;;;;;;;6.25;2.65;;;;;;;1.73;87.63;97285.73;1723509;83;21091;-64
2023/12/23 04:37:41;;;;;;;6.58;2.20;;;;;;;1.72;87.55;97289.48;1723394;83;21078;-63
2023/12/23 04:40:09;;;;;;;9.23;2.37;;;;;;;1.75;87.62;97294.44;1723456;83;21042;-62
2023/12/23 04:42:37;;;;;;;4.08;1.85;;;;;;;1.78;87.64;97302.09;1723471;83;21110;-65
2023/12/23 04:45:09;;;;;;;10.18;2.85;;;;;;;1.79;87.60;97307.28;1723455;83;21082;-63
2023/12/23 04:47:38;;;;;;;7.33;2.17;;;;;;;1.80;87.61;97294.09;1723706;83;21113;-62
2023/12/23 04:50:08;;;;;;;6.00;2.10;;;;;;;1.81;87.58;97299.79;1723340;83;21027;-65
2023/12/23 04:52:36;;;;;;;7.30;2.10;;;;;;;1.82;87.55;97300.09;1723267;83;21027;-64
2023/12/23 04:55:09;;;;;;;6.62;2.33;;;;;;;1.82;87.51;97297.92;1723618;83;21095;-65
2023/12/23 04:57:38;;;;;;;11.43;2.52;;;;;;;1.83;87.46;97298.22;1723534;83;21058;-63
2023/12/23 05:00:08;;;;;;;6.60;2.58;;;;;;;1.82;87.51;97306.02;1723524;83;21205;-64
2023/12/23 05:02:36;;;;;;;6.22;2.33;;;;;;;1.83;87.60;97304.97;1723282;83;21083;-64
2023/12/23 05:05:06;;;;;;;6.78;2.95;;;;;;;1.84;87.72;97311.50;1723500;83;21011;-62
2023/12/23 05:07:35;;;;;;;7.35;2.50;;;;;;;1.85;87.66;97314.50;1723506;83;21474;-64
2023/12/23 05:10:05;;;;;;;6.95;2.00;;;;;;;1.86;87.71;97323.42;1723327;83;21043;-65
2023/12/23 05:12:34;;;;;;;8.08;3.17;;;;;;;1.87;87.64;97319.68;1723512;83;21119;-65
2023/12/23 05:15:02;;;;;;;7.35;2.40;;;;;;;1.86;87.58;97326.95;1723417;83;21549;-66
2023/12/23 05:17:31;;;;;;;8.23;2.50;;;;;;;1.85;87.58;97321.25;1723331;83;21066;-64
2023/12/23 05:20:00;;;;;;;6.72;2.37;;;;;;;1.84;87.59;97324.16;1723521;83;21059;-64
2023/12/23 05:22:28;;;;;;;9.80;2.98;;;;;;;1.81;87.62;97320.03;1723346;83;21038;-64
2023/12/23 05:24:57;;;;;;;7.05;2.40;;;;;;;1.82;87.76;97326.26;1723551;83;21054;-63
2023/12/23 05:27:26;;;;;;;6.17;2.25;;;;;;;1.82;87.85;97325.73;1723384;83;21596;-62
2023/12/23 05:29:56;;;;;;;6.28;2.40;;;;;;;1.82;87.86;97328.95;1695232;83;21517;-63
2023/12/23 05:32:24;;;;;;;6.28;2.50;;;;;;;1.81;87.97;97328.65;1723239;83;21043;-67
2023/12/23 05:34:55;;;;;;;6.95;2.70;;;;;;;1.82;87.98;97325.73;1723246;83;21043;-63
2023/12/23 05:37:23;;;;;;;8.25;2.60;;;;;;;1.83;87.99;97327.91;1723649;83;21443;-65
2023/12/23 05:39:52;;;;;;;7.58;2.52;;;;;;;1.84;87.95;97344.41;1723319;83;21170;-64
2023/12/23 05:42:20;;;;;;;9.23;2.60;;;;;;;1.83;87.98;97340.06;1723299;83;21003;-64
2023/12/23 05:44:49;;;;;;;9.65;2.70;;;;;;;1.83;88.05;97353.55;1700188;82;21492;-63
2023/12/23 05:47:18;;;;;;;8.00;3.05;;;;;;;1.83;88.13;97350.84;1700169;84;21159;-65
2023/12/23 05:49:46;;;;;;;7.45;2.83;;;;;;;1.83;88.11;97362.47;1700287;84;21083;-64
2023/12/23 05:52:15;;;;;;;10.65;2.80;;;;;;;1.81;88.10;97352.42;1684646;84;21039;-64
2023/12/23 05:54:44;;;;;;;13.83;3.30;;;;;;;1.81;88.01;97361.86;1700146;84;21100;-64
2023/12/23 05:57:12;;;;;;;8.93;2.95;;;;;;;1.78;87.98;97356.07;1700430;84;21068;-63
2023/12/23 05:59:41;;;;;;;6.20;2.83;;;;;;;1.78;88.08;97365.52;1700158;84;21127;-64
2023/12/23 06:02:10;;;;;;;7.53;2.85;;;;;;;1.80;88.09;97372.36;1700311;84;21059;-64
2023/12/23 06:04:38;;;;;;;7.83;2.67;;;;;;;1.81;88.07;97384.80;1700320;84;21271;-65
2023/12/23 06:07:07;;;;;;;5.97;2.70;;;;;;;1.84;88.06;97378.15;1700382;84;21075;-64
2023/12/23 06:09:36;;;;;;;8.10;2.70;;;;;;;1.84;88.01;97378.15;1700313;84;21143;-63
2023/12/23 06:12:06;;;;;;;7.58;3.12;;;;;;;1.83;87.90;97386.77;1700197;84;21550;-64
2023/12/23 06:14:36;;;;;;;10.00;3.10;;;;;;;1.82;87.93;97385.11;1700269;84;21037;-64
2023/12/23 06:17:04;;;;;;;6.80;2.58;;;;;;;1.82;87.98;97384.28;1684736;84;21008;-63
2023/12/23 06:19:33;;;;;;;8.85;2.85;;;;;;;1.80;87.86;97389.07;1700093;84;21035;-64
2023/12/23 06:22:02;;;;;;;7.40;2.87;;;;;;;1.82;87.92;97393.73;1700300;84;21083;-64
2023/12/23 06:24:31;;;;;;;9.38;2.90;;;;;;;1.83;87.75;97399.44;1700279;84;21075;-65
2023/12/23 06:26:59;;;;;;;8.45;2.95;;;;;;;1.81;87.72;97401.00;1700376;84;21024;-63
2023/12/23 06:29:30;;;;;;;9.95;3.12;;;;;;;1.81;87.81;97404.22;1700185;84;21036;-64
2023/12/23 06:31:59;;;;;;;6.95;2.80;;;;;;;1.84;87.89;97406.48;1700111;84;21044;-65
2023/12/23 06:34:28;;;;;;;8.00;3.15;;;;;;;1.84;87.80;97397.88;1700139;84;21476;-64
2023/12/23 06:36:57;;;;;;;7.30;2.58;;;;;;;1.84;87.79;97406.48;1684443;84;21052;-66
2023/12/23 06:39:25;;;;;;;9.40;3.22;;;;;;;1.83;87.80;97406.19;1700400;84;21052;-65
2023/12/23 06:41:54;;;;;;;8.03;4.33;;;;;;;1.84;87.87;97411.88;1700288;84;21067;-65
2023/12/23 06:44:22;;;;;;;13.25;4.35;;;;;;;1.84;87.70;97409.19;1700132;83;21056;-64
2023/12/23 06:46:51;;;;;;;11.35;3.55;;;;;;;1.83;87.77;97416.45;1700273;84;21024;-64
2023/12/23 06:49:20;;;;;;;16.15;4.30;;;;;;;1.82;87.68;97418.84;1700250;84;21510;-65
2023/12/23 06:51:49;;;;;;;11.85;3.30;;;;;;;1.83;87.72;97420.50;1700274;84;21047;-64
2023/12/23 06:54:17;;;;;;;10.68;2.95;;;;;;;1.86;87.73;97425.99;1700533;84;21027;-64
2023/12/23 06:56:46;;;;;;;12.47;3.47;;;;;;;1.85;87.41;97427.04;1700176;84;21492;-65
2023/12/23 06:59:14;;;;;;;10.68;2.95;;;;;;;1.84;87.52;97430.78;1700310;84;21427;-64
2023/12/23 07:01:43;;;;;;;10.05;2.90;;;;;;;1.84;87.55;97433.48;1700612;84;21048;-66
2023/12/23 07:04:12;;;;;;;10.50;4.83;;;;;;;1.83;87.58;97429.12;1700288;84;21020;-65
2023/12/23 07:06:41;;;;;;;13.20;3.22;;;;;;;1.82;87.66;97428.81;1700153;84;21072;-64
2023/12/23 07:09:10;;;;;;;7.70;3.15;;;;;;;1.84;87.68;97433.48;1700324;84;21495;-64
2023/12/23 07:11:38;;;;;;;9.83;3.25;;;;;;;1.86;87.70;97441.67;1700229;84;21075;-63
2023/12/23 07:14:08;;;;;;;9.00;3.80;;;;;;;1.90;87.70;97446.11;1700425;84;21064;-65
2023/12/23 07:16:37;;;;;;;14.20;4.10;;;;;;;1.93;87.65;97442.16;1700126;84;21040;-62
2023/12/23 07:19:06;;;;;;;8.93;3.58;;;;;;;1.94;87.45;97440.59;1684507;84;21044;-64
2023/12/23 07:21:35;;;;;;;8.45;3.52;;;;;;;1.93;87.36;97447.03;1700331;84;21079;-62
2023/12/23 07:24:04;;;;;;;10.50;3.52;;;;;;;1.94;87.09;97450.56;1700338;84;21032;-63
2023/12/23 07:26:35;;;;;;;10.50;3.90;;;;;;;1.90;86.92;97442.89;1700209;84;21072;-65
2023/12/23 07:29:04;;;;;;;12.85;3.80;;;;;;;1.90;86.90;97440.19;1700319;84;21008;-64
2023/12/23 07:31:32;;;;;;;13.35;4.40;;;;;;;1.93;87.10;97443.51;1700399;84;21121;-65
2023/12/23 07:34:02;;;;;;;9.50;3.65;;;;;;;1.94;86.96;97443.29;1700405;84;21068;-64
2023/12/23 07:36:32;;;;;;;11.90;3.77;;;;;;;1.94;86.90;97443.29;1700329;84;21129;-64
2023/12/23 07:39:00;;;;;;;12.18;4.45;;;;;;;1.96;86.84;97449.33;1684385;84;21452;-63
2023/12/23 07:41:29;;;;;;;12.85;5.80;;;;;;;1.99;86.90;97448.91;1700246;84;21004;-64
2023/12/23 07:43:58;;;;;;;12.98;4.60;;;;;;;2.01;86.76;97445.98;1700121;83;21083;-65
2023/12/23 07:46:27;;;;;;;14.07;4.20;;;;;;;2.01;86.65;97449.52;1700260;84;21012;-65
2023/12/23 07:48:56;;;;;;;10.15;4.03;;;;;;;2.02;86.40;97448.47;1700379;84;21036;-64
2023/12/23 07:51:25;;;;;;;15.95;5.00;;;;;;;2.04;86.30;97451.78;1700359;84;21028;-64
2023/12/23 07:53:53;;;;;;;13.50;4.37;;;;;;;2.00;85.86;97453.26;1700367;84;21040;-64
2023/12/23 07:56:24;;;;;;;14.13;4.40;;;;;;;2.01;85.92;97456.27;1700103;84;21092;-66
2023/12/23 07:58:52;;;;;;;15.80;4.85;;;;;;;2.02;85.77;97461.97;1684731;84;21083;-62
2023/12/23 08:01:21;;;;;;;11.60;5.17;;;;;;;2.04;85.72;97458.53;1700242;84;21028;-63
2023/12/23 08:03:50;;;;;;;11.95;5.03;;;;;;;2.09;85.37;97464.11;1700353;84;21075;-64
2023/12/23 08:06:19;;;;;;;9.65;3.37;;;;;;;2.09;84.98;97457.36;1700411;84;21012;-64
2023/12/23 08:08:48;;;;;;;13.62;4.72;;;;;;;2.09;84.66;97457.88;1700190;84;21063;-63
2023/12/23 08:11:17;;;;;;;14.10;3.87;;;;;;;2.11;84.57;97461.20;1700522;84;21052;-63
2023/12/23 08:13:46;;;;;;;12.33;4.20;;;;;;;2.11;84.60;97455.27;1700218;84;21087;-64
2023/12/23 08:16:14;;;;;;;17.75;5.47;;;;;;;2.20;84.62;97464.78;1700597;84;21052;-64
2023/12/23 08:18:43;;;;;;;11.63;5.50;;;;;;;2.27;84.22;97464.74;1684375;84;21115;-65
2023/12/23 08:21:12;;;;;;;12.33;4.22;;;;;;;2.37;83.90;97472.37;1700205;84;21063;-64
2023/12/23 08:23:40;;;;;;;14.00;3.65;;;;;;;2.46;83.39;97475.11;1684516;84;21028;-64
2023/12/23 08:26:09;;;;;;;9.48;3.70;;;;;;;2.51;83.20;97473.41;1700192;84;21432;-65
2023/12/23 08:28:38;;;;;;;11.00;3.55;;;;;;;2.58;82.68;97473.89;1700238;84;21452;-63
2023/12/23 08:31:06;;;;;;;10.63;4.55;;;;;;;2.60;82.20;97479.41;1700186;84;21498;-64
2023/12/23 08:33:35;;;;;;;11.73;3.83;;;;;;;2.60;82.01;97471.30;1700333;84;21060;-63
2023/12/23 08:36:05;;;;;;;11.35;3.85;;;;;;;2.62;81.85;97484.08;1684665;84;21099;-65
2023/12/23 08:38:34;;;;;;;14.15;4.85;;;;;;;2.64;81.66;97480.63;1700180;84;21167;-63
2023/12/23 08:41:03;;;;;;;10.48;4.40;;;;;;;2.62;81.51;97486.78;1700190;84;21072;-64
2023/12/23 08:43:32;;;;;;;11.70;3.83;;;;;;;2.65;81.43;97480.94;1701466;83;21024;-65
2023/12/23 08:46:00;;;;;;;13.05;4.58;;;;;;;2.65;80.39;97478.23;1720767;83;21466;-65
2023/12/23 08:48:30;;;;;;;10.35;3.60;;;;;;;2.61;80.05;97481.59;1702595;83;21059;-64
2023/12/23 08:50:58;;;;;;;11.03;4.17;;;;;;;2.58;79.94;97476.59;1720840;83;21054;-63
2023/12/23 08:53:28;;;;;;;13.72;4.08;;;;;;;2.55;79.82;97479.21;1720824;83;21059;-64
2023/12/23 08:55:56;;;;;;;14.50;4.50;;;;;;;2.53;80.08;97482.12;1720679;83;21072;-66
2023/12/23 08:58:25;;;;;;;13.50;3.85;;;;;;;2.54;80.12;97477.55;1702467;83;21518;-64
2023/12/23 09:00:59;;;;;;;13.35;3.60;;;;;;;2.54;79.95;97478.91;1730776;80;21016;-66
2023/12/23 09:03:30;;;;;;;13.15;3.33;;;;;;;2.57;80.22;97487.09;1755572;80;21011;-65
2023/12/23 09:05:59;;;;;;;11.15;3.83;;;;;;;2.65;80.49;97497.67;1752401;80;21051;-65
2023/12/23 09:08:27;;;;;;;8.90;3.40;;;;;;;2.65;79.51;97478.23;1709877;84;21044;-66
2023/12/23 09:10:56;;;;;;;12.45;3.42;;;;;;;2.65;79.08;97485.52;1687858;84;21579;-65
2023/12/23 09:13:27;;;;;;;7.95;3.12;;;;;;;2.63;78.81;97481.67;1663772;84;21522;-65
2023/12/23 09:15:56;;;;;;;7.28;2.62;;;;;;;2.65;78.67;97482.28;1691311;85;21127;-64
2023/12/23 09:18:25;;;;;;;12.20;4.62;;;;;;;2.64;77.79;97476.58;1664169;85;21067;-63
2023/12/23 09:20:54;;;;;;;11.68;4.45;;;;;;;2.65;77.76;97480.94;1691557;85;21431;-65
2023/12/23 09:23:23;;;;;;;14.95;4.67;;;;;;;2.68;77.79;97481.02;1706620;84;21089;-65
2023/12/23 09:25:52;;;;;;;12.63;3.37;;;;;;;2.71;77.93;97488.17;1691620;85;21074;-65
2023/12/23 09:28:21;;;;;;;9.58;3.17;;;;;;;2.75;77.77;97490.73;1706526;83;21121;-63
2023/12/23 09:30:49;;;;;;;11.00;3.35;;;;;;;2.81;77.59;97480.92;1691490;85;21099;-65
2023/12/23 09:33:18;;;;;;;9.45;3.55;;;;;;;2.83;77.40;97481.00;1706588;83;21061;-65
2023/12/23 09:35:47;;;;;;;10.43;3.72;;;;;;;2.83;76.66;97486.94;1691629;85;21023;-66
2023/12/23 09:38:16;;;;;;;8.13;3.25;;;;;;;2.75;76.70;97479.92;1709776;84;21051;-65
2023/12/23 09:40:45;;;;;;;8.33;3.45;;;;;;;2.73;76.54;97482.02;1710223;83;21032;-65
2023/12/23 09:43:15;;;;;;;14.10;3.70;;;;;;;2.67;76.31;97481.55;1710270;83;21091;-65
2023/12/23 09:45:44;;;;;;;9.30;3.00;;;;;;;2.65;76.52;97479.59;1673478;85;21136;-65
2023/12/23 09:48:13;;;;;;;21.07;3.90;;;;;;;2.64;76.88;97490.09;1678146;85;21091;-65
2023/12/23 09:50:42;;;;;;;11.70;2.90;;;;;;;2.66;76.90;97479.89;1678242;85;21044;-64
2023/12/23 09:53:13;;;;;;;10.18;3.40;;;;;;;2.70;76.63;97480.28;1678126;85;21060;-64
2023/12/23 09:55:42;;;;;;;8.88;3.60;;;;;;;2.69;76.64;97482.67;1677906;85;21064;-65
2023/12/23 09:58:13;;;;;;;8.65;3.05;;;;;;;2.67;76.32;97482.89;1677965;85;21115;-66
2023/12/23 10:00:41;;;;;;;8.00;3.10;;;;;;;2.65;76.66;97478.23;1678217;85;21025;-65
2023/12/23 10:03:09;;;;;;;9.83;3.27;;;;;;;2.64;77.45;97489.27;1678049;84;21037;-66
2023/12/23 10:05:43;;;;;;;9.93;3.02;;;;;;;2.58;77.41;97478.77;1678205;85;21036;-65
2023/12/23 10:08:13;;;;;;;9.18;3.20;;;;;;;2.56;76.96;97480.86;1677880;84;21504;-66
2023/12/23 10:10:42;;;;;;;13.68;3.55;;;;;;;2.53;77.16;97478.60;1643345;85;21040;-67
2023/12/23 10:13:11;;;;;;;11.08;3.75;;;;;;;2.57;77.76;97481.69;1650270;87;21088;-66
2023/12/23 10:15:41;;;;;;;9.83;3.30;;;;;;;2.62;77.97;97478.67;1688016;84;21051;-65
2023/12/23 10:18:13;;;;;;;12.10;3.77;;;;;;;2.66;77.60;97488.52;1706160;84;21067;-64
2023/12/23 10:20:43;;;;;;;10.48;3.50;;;;;;;2.66;77.48;97480.41;1669398;85;21096;-65
2023/12/23 10:23:12;;;;;;;12.75;3.87;;;;;;;2.71;77.49;97486.81;1650161;87;21099;-66
2023/12/23 10:25:41;;;;;;;10.03;3.33;;;;;;;2.73;77.53;97482.02;1669424;84;21097;-66
2023/12/23 10:28:10;;;;;;;11.22;3.17;;;;;;;2.75;76.89;97485.86;1640352;87;21072;-67
2023/12/23 10:30:43;;;;;;;10.18;3.08;;;;;;;2.76;76.80;97482.93;1706296;83;20995;-66
2023/12/23 10:33:09;;;;;;;10.20;2.70;;;;;;;2.81;77.57;97483.63;1705991;83;20996;-65
2023/12/23 10:35:47;;;;;;;13.18;3.75;;;;;;;2.86;76.82;97488.67;1706220;83;21047;-65
2023/12/23 10:38:16;;;;;;;13.03;3.95;;;;;;;2.88;76.97;97484.92;1706156;83;21134;-66
2023/12/23 10:41:00;;;;;;;9.88;3.22;;;;;;;2.87;76.27;97481.39;1669220;86;21174;-67
2023/12/23 10:43:30;;;;;;;10.05;2.95;;;;;;;2.83;75.71;97489.64;1645213;86;21584;-65
2023/12/23 10:45:58;;;;;;;9.50;2.90;;;;;;;2.78;75.50;97482.72;1696679;84;21132;-66
2023/12/23 10:48:28;;;;;;;9.05;3.65;;;;;;;2.79;75.73;97489.25;1661186;85;21495;-66
2023/12/23 10:50:57;;;;;;;14.93;5.05;;;;;;;2.81;75.66;97489.03;1703441;83;21112;-68
2023/12/23 10:53:29;;;;;;;10.08;3.30;;;;;;;2.84;76.01;97492.13;1688558;85;21107;-66
2023/12/23 10:55:58;;;;;;;18.32;5.45;;;;;;;2.86;75.14;97488.67;1686146;84;21116;-65
2023/12/23 10:58:26;;;;;;;10.15;3.40;;;;;;;2.87;75.17;97484.09;1688350;85;21028;-65
2023/12/23 11:00:55;;;;;;;7.95;3.62;;;;;;;2.91;75.11;97485.83;1703459;83;21501;-66
2023/12/23 11:03:25;;;;;;;9.95;3.25;;;;;;;2.92;74.79;97488.84;1688500;85;21459;-66
2023/12/23 11:05:53;;;;;;;12.78;3.70;;;;;;;2.92;74.53;97484.78;1703410;84;21339;-65
2023/12/23 11:08:22;;;;;;;9.50;3.52;;;;;;;2.93;74.62;97483.22;1688307;85;21079;-66
2023/12/23 11:10:52;;;;;;;10.98;3.70;;;;;;;2.96;74.75;97490.89;1705500;84;21047;-66
2023/12/23 11:13:20;;;;;;;10.20;3.42;;;;;;;3.01;75.10;97489.70;1712936;84;21056;-67
2023/12/23 11:15:49;;;;;;;12.98;3.37;;;;;;;3.07;75.14;97502.86;1712905;84;21043;-67
2023/12/23 11:18:17;;;;;;;11.40;3.87;;;;;;;3.12;75.36;97490.85;1694653;84;21075;-65
2023/12/23 11:20:49;;;;;;;13.95;3.67;;;;;;;3.13;74.62;97490.63;1712558;83;22164;-66
2023/12/23 11:23:30;;;;;;;13.30;5.85;;;;;;;3.12;74.38;97490.85;1712578;84;21549;-67
2023/12/23 11:25:59;;;;;;;7.40;3.10;;;;;;;3.08;74.50;97500.45;1712673;83;21071;-67
2023/12/23 11:28:30;;;;;;;9.73;3.45;;;;;;;3.00;77.39;97519.66;1712587;84;21044;-67
2023/12/23 11:31:01;;;;;;;11.33;3.62;;;;;;;2.72;78.41;97528.19;1712630;84;21009;-66
2023/12/23 11:33:31;;;;;;;7.15;3.30;;;;;;;2.51;79.85;97530.68;1695059;84;21087;-66
2023/12/23 11:36:02;;;;;;;9.38;3.62;;;;;;;2.33;81.08;97526.52;1712501;84;21087;-65
2023/12/23 11:38:52;;;;;;;10.00;4.22;;;;;;;2.16;82.51;97529.72;1695005;84;21087;-64
2023/12/23 11:41:21;;;;;;;10.63;3.95;;;;;;;2.07;83.91;97531.00;1673219;84;21079;-66
2023/12/23 11:43:51;;;;;;;9.73;4.12;;;;;;;1.96;85.09;97528.14;1712672;84;20999;-67
2023/12/23 11:46:22;;;;;;;10.60;4.03;;;;;;;1.87;85.95;97535.09;1702146;84;21075;-67
2023/12/23 11:48:51;;;;;;;12.43;4.97;;;;;;;1.83;86.64;97527.64;1712491;83;21508;-66